createdAt,value
2022-09-22T00:06:33.226Z,76.76
2022-09-22T00:09:58.309Z,74.78
2022-09-22T00:13:22.251Z,77.37
2022-09-22T00:16:50.220Z,77.06
2022-09-22T00:20:14.298Z,78.64
2022-09-22T00:23:42.288Z,80.15
2022-09-22T00:27:07.250Z,80.62
2022-09-22T00:30:32.307Z,81.81
2022-09-22T00:33:56.231Z,80.12
2022-09-22T00:37:20.344Z,80.39
2022-09-22T00:40:45.331Z,79.82
2022-09-22T00:44:42.260Z,80.21
2022-09-22T00:48:06.279Z,81.17
2022-09-22T00:51:31.306Z,81.65
2022-09-22T00:54:55.280Z,80.98
2022-09-22T00:58:16.901Z,81.24
2022-09-22T01:01:36.379Z,80.03
2022-09-22T01:05:00.239Z,81.88
2022-09-22T01:08:25.329Z,77.59
2022-09-22T01:11:49.323Z,79.03
2022-09-22T01:15:58.333Z,80.74
2022-09-22T01:19:31.316Z,81.10
2022-09-22T01:23:43.294Z,79.82
2022-09-22T01:27:16.337Z,81.81
2022-09-22T01:30:46.346Z,85.86
2022-09-22T01:34:42.335Z,83.24
2022-09-22T01:38:12.252Z,87.79
2022-09-22T01:42:08.355Z,88.96
2022-09-22T01:45:37.305Z,89.03
2022-09-22T01:49:04.353Z,92.32
2022-09-22T01:52:32.381Z,91.98
2022-09-22T01:55:59.342Z,90.42
2022-09-22T01:59:18.904Z,93.97
2022-09-22T02:02:45.519Z,98.09
2022-09-22T02:06:14.321Z,100.00
2022-09-22T02:09:40.347Z,100.00
2022-09-22T02:13:04.323Z,100.00
2022-09-22T02:16:34.421Z,100.00
2022-09-22T02:19:58.425Z,100.00
2022-09-22T02:23:22.433Z,100.00
2022-09-22T02:26:49.322Z,100.00
2022-09-22T02:30:24.346Z,100.00
2022-09-22T02:33:57.333Z,100.00
2022-09-22T02:37:45.336Z,100.00
2022-09-22T02:41:40.421Z,100.00
2022-09-22T02:45:25.390Z,100.00
2022-09-22T02:48:56.433Z,100.00
2022-09-22T02:52:26.434Z,100.00
2022-09-22T02:55:50.328Z,100.00
2022-09-22T02:59:14.422Z,100.00
2022-09-22T03:02:32.005Z,100.00
2022-09-22T03:05:49.409Z,100.00
2022-09-22T03:09:13.334Z,100.00
2022-09-22T03:12:37.385Z,100.00
2022-09-22T03:16:01.406Z,100.00
2022-09-22T03:19:25.405Z,100.00
2022-09-22T03:22:50.334Z,100.00
2022-09-22T03:26:13.386Z,100.00
2022-09-22T03:29:37.320Z,100.00
2022-09-22T03:33:01.334Z,100.00
2022-09-22T03:36:26.348Z,100.00
2022-09-22T03:39:50.394Z,100.00
2022-09-22T03:43:16.712Z,100.00
2022-09-22T03:46:42.341Z,100.00
2022-09-22T03:50:07.318Z,100.00
2022-09-22T03:53:33.492Z,100.00
2022-09-22T03:56:58.373Z,100.00
2022-09-22T04:00:22.395Z,100.00
2022-09-22T04:03:40.966Z,100.00
2022-09-22T04:06:59.133Z,100.00
2022-09-22T04:10:25.375Z,100.00
2022-09-22T04:13:49.347Z,100.00
2022-09-22T04:17:13.368Z,100.00
2022-09-22T04:20:38.352Z,100.00
2022-09-22T04:24:01.333Z,100.00
2022-09-22T04:27:25.438Z,100.00
2022-09-22T04:30:51.437Z,100.00
2022-09-22T04:34:15.430Z,100.00
2022-09-22T04:37:39.348Z,100.00
2022-09-22T04:41:05.414Z,100.00
2022-09-22T04:44:32.127Z,100.00
2022-09-22T04:48:03.408Z,100.00
2022-09-22T04:51:27.387Z,100.00
2022-09-22T04:54:52.438Z,100.00
2022-09-22T04:58:15.365Z,100.00
2022-09-22T05:01:38.450Z,100.00
2022-09-22T05:04:55.965Z,100.00
2022-09-22T05:08:13.393Z,100.00
2022-09-22T05:11:38.385Z,100.00
2022-09-22T05:15:02.379Z,100.00
2022-09-22T05:18:27.418Z,100.00
2022-09-22T05:21:52.401Z,100.00
2022-09-22T05:25:19.397Z,100.00
2022-09-22T05:28:43.366Z,100.00
2022-09-22T05:32:07.428Z,100.00
2022-09-22T05:35:36.879Z,100.00
2022-09-22T05:39:01.347Z,100.00
2022-09-22T05:42:26.444Z,100.00
2022-09-22T05:45:50.436Z,100.00
2022-09-22T05:49:14.397Z,100.00
2022-09-22T05:52:38.349Z,100.00
2022-09-22T05:56:05.442Z,100.00
2022-09-22T05:59:29.358Z,100.00
2022-09-22T06:02:53.476Z,100.00
2022-09-22T06:06:10.960Z,100.00
2022-09-22T06:09:29.400Z,100.00
2022-09-22T06:12:53.419Z,100.00
2022-09-22T06:16:18.453Z,100.00
2022-09-22T06:19:42.388Z,100.00
2022-09-22T06:23:08.413Z,100.00
2022-09-22T06:26:32.392Z,100.00
2022-09-22T06:29:57.411Z,100.00
2022-09-22T06:33:22.429Z,100.00
2022-09-22T06:36:46.412Z,100.00
2022-09-22T06:40:11.884Z,100.00
2022-09-22T06:43:45.421Z,100.00
2022-09-22T06:47:13.374Z,100.00
2022-09-22T06:50:40.416Z,100.00
2022-09-22T06:54:04.428Z,100.00
2022-09-22T06:57:29.456Z,100.00
2022-09-22T07:00:53.458Z,100.00
2022-09-22T07:04:17.475Z,100.00
2022-09-22T07:07:47.722Z,100.00
2022-09-22T07:11:07.458Z,100.00
2022-09-22T07:14:33.469Z,100.00
2022-09-22T07:17:58.391Z,100.00
2022-09-22T07:21:35.472Z,100.00
2022-09-22T07:25:01.463Z,100.00
2022-09-22T07:28:25.482Z,100.00
2022-09-22T07:31:49.475Z,100.00
2022-09-22T07:35:14.571Z,100.00
2022-09-22T07:38:41.458Z,100.00
2022-09-22T07:42:05.472Z,100.00
2022-09-22T07:45:31.457Z,100.00
2022-09-22T07:48:55.437Z,100.00
2022-09-22T07:52:19.579Z,100.00
2022-09-22T07:55:46.397Z,100.00
2022-09-22T07:59:13.489Z,100.00
2022-09-22T08:02:44.454Z,100.00
2022-09-22T08:06:23.892Z,100.00
2022-09-22T08:09:43.034Z,100.00
2022-09-22T08:13:06.455Z,100.00
2022-09-22T08:16:36.517Z,100.00
2022-09-22T08:20:00.502Z,100.00
2022-09-22T08:23:24.469Z,100.00
2022-09-22T08:26:48.515Z,100.00
2022-09-22T08:30:13.479Z,100.00
2022-09-22T08:33:37.470Z,100.00
2022-09-22T08:37:01.528Z,100.00
2022-09-22T08:40:32.516Z,100.00
2022-09-22T08:44:05.516Z,100.00
2022-09-22T08:47:55.457Z,100.00
2022-09-22T08:51:58.441Z,100.00
2022-09-22T08:55:38.487Z,100.00
2022-09-22T08:59:15.445Z,100.00
2022-09-22T09:03:07.600Z,100.00
2022-09-22T09:07:03.469Z,100.00
2022-09-22T09:10:43.460Z,100.00
2022-09-22T09:14:20.503Z,100.00
2022-09-22T09:17:47.450Z,100.00
2022-09-22T09:21:12.533Z,100.00
2022-09-22T09:28:51.485Z,100.00
2022-09-22T09:32:18.496Z,100.00
2022-09-22T09:36:03.563Z,100.00
2022-09-22T09:39:46.442Z,100.00
2022-09-22T09:43:16.484Z,100.00
2022-09-22T09:46:53.443Z,100.00
2022-09-22T09:50:19.491Z,100.00
2022-09-22T09:53:55.455Z,100.00
2022-09-22T09:57:27.870Z,100.00
2022-09-22T10:01:13.507Z,100.00
2022-09-22T10:04:52.479Z,100.00
2022-09-22T10:08:36.486Z,100.00
2022-09-22T10:12:16.535Z,100.00
2022-09-22T10:15:41.553Z,100.00
2022-09-22T10:19:21.449Z,100.00
2022-09-22T10:22:45.504Z,100.00
2022-09-22T10:26:36.497Z,100.00
2022-09-22T10:30:04.498Z,100.00
2022-09-22T10:33:41.709Z,100.00
2022-09-22T10:37:07.549Z,100.00
2022-09-22T10:40:33.603Z,100.00
2022-09-22T10:44:27.363Z,100.00
2022-09-22T10:48:33.493Z,100.00
2022-09-22T10:52:09.549Z,100.00
2022-09-22T10:55:44.549Z,100.00
2022-09-22T10:59:17.507Z,100.00
2022-09-22T11:02:54.515Z,100.00
2022-09-22T11:06:42.517Z,100.00
2022-09-22T11:10:45.511Z,100.00
2022-09-22T11:14:23.860Z,100.00
2022-09-22T11:18:08.508Z,100.00
2022-09-22T11:21:54.476Z,100.00
2022-09-22T11:25:50.579Z,100.00
2022-09-22T11:29:28.483Z,100.00
2022-09-22T11:33:02.573Z,100.00
2022-09-22T11:37:01.535Z,100.00
2022-09-22T11:40:37.812Z,100.00
2022-09-22T11:44:28.530Z,100.00
2022-09-22T11:48:04.525Z,100.00
2022-09-22T11:51:44.505Z,100.00
2022-09-22T11:55:31.568Z,100.00
2022-09-22T11:58:55.503Z,100.00
2022-09-22T12:02:44.598Z,100.00
2022-09-22T12:06:18.530Z,100.00
2022-09-22T12:09:48.525Z,100.00
2022-09-22T12:13:07.073Z,100.00
2022-09-22T12:16:27.519Z,100.00
2022-09-22T12:20:20.659Z,100.00
2022-09-22T12:23:52.525Z,100.00
2022-09-22T12:27:25.552Z,100.00
2022-09-22T12:30:49.688Z,100.00
2022-09-22T12:34:13.556Z,100.00
2022-09-22T12:37:43.568Z,100.00
2022-09-22T12:41:11.518Z,100.00
2022-09-22T12:44:37.549Z,100.00
2022-09-22T12:48:09.781Z,100.00
2022-09-22T12:51:41.556Z,100.00
2022-09-22T12:55:05.554Z,100.00
2022-09-22T12:58:38.717Z,100.00
2022-09-22T13:02:27.553Z,100.00
2022-09-22T13:05:52.594Z,100.00
2022-09-22T13:09:19.549Z,100.00
2022-09-22T13:12:43.566Z,100.00
2022-09-22T13:16:11.640Z,100.00
2022-09-22T13:19:35.553Z,100.00
2022-09-22T13:22:59.628Z,100.00
2022-09-22T13:26:28.604Z,100.00
2022-09-22T13:29:52.593Z,100.00
2022-09-22T13:33:17.562Z,100.00
2022-09-22T13:36:42.567Z,100.00
2022-09-22T13:40:09.589Z,100.00
2022-09-22T13:43:45.613Z,100.00
2022-09-22T13:47:12.560Z,100.00
2022-09-22T13:50:37.612Z,100.00
2022-09-22T13:54:05.566Z,100.00
2022-09-22T13:57:39.588Z,100.00
2022-09-22T14:01:13.414Z,100.00
2022-09-22T14:04:42.580Z,100.00
2022-09-22T14:08:12.009Z,100.00
2022-09-22T14:11:43.601Z,100.00
2022-09-22T14:15:07.591Z,100.00
2022-09-22T14:18:36.592Z,100.00
2022-09-22T14:22:10.629Z,100.00
2022-09-22T14:25:35.550Z,100.00
2022-09-22T14:28:59.591Z,100.00
2022-09-22T14:32:35.595Z,100.00
2022-09-22T14:36:00.593Z,100.00
2022-09-22T14:39:32.536Z,100.00
2022-09-22T14:42:57.636Z,100.00
2022-09-22T14:46:44.595Z,100.00
2022-09-22T14:50:28.583Z,100.00
2022-09-22T14:54:03.570Z,100.00
2022-09-22T14:57:30.583Z,100.00
2022-09-22T15:01:23.609Z,100.00
2022-09-22T15:04:47.632Z,100.00
2022-09-22T15:08:13.371Z,100.00
2022-09-22T15:12:04.396Z,100.00
2022-09-22T15:15:32.074Z,100.00
2022-09-22T15:18:49.404Z,100.00
2022-09-22T15:22:15.381Z,100.00
2022-09-22T15:25:39.443Z,100.00
2022-09-22T15:29:06.429Z,100.00
2022-09-22T15:32:31.409Z,100.00
2022-09-22T15:35:55.439Z,100.00
2022-09-22T15:39:35.430Z,100.00
2022-09-22T15:43:12.720Z,100.00
2022-09-22T15:46:51.675Z,100.00
2022-09-22T15:50:15.592Z,100.00
2022-09-22T15:53:39.746Z,100.00
2022-09-22T15:57:07.626Z,100.00
2022-09-22T16:00:36.724Z,100.00
2022-09-22T16:04:00.670Z,100.00
2022-09-22T16:07:26.760Z,100.00
2022-09-22T16:10:52.638Z,100.00
2022-09-22T16:14:19.678Z,100.00
2022-09-22T16:17:39.649Z,100.00
2022-09-22T16:20:59.690Z,100.00
2022-09-22T16:24:26.611Z,100.00
2022-09-22T16:27:49.651Z,100.00
2022-09-22T16:31:17.682Z,100.00
2022-09-22T16:34:42.685Z,100.00
2022-09-22T16:38:07.637Z,100.00
2022-09-22T16:41:39.698Z,100.00
2022-09-22T16:45:03.627Z,100.00
2022-09-22T16:48:27.689Z,100.00
2022-09-22T16:51:56.702Z,100.00
2022-09-22T16:55:21.668Z,100.00
2022-09-22T16:58:44.660Z,100.00
2022-09-22T17:02:08.687Z,100.00
2022-09-22T17:05:31.662Z,100.00
2022-09-22T17:08:56.661Z,100.00
2022-09-22T17:12:19.709Z,100.00
2022-09-22T17:15:44.718Z,100.00
2022-09-22T17:19:06.245Z,100.00
2022-09-22T17:22:24.708Z,100.00
2022-09-22T17:25:48.687Z,100.00
2022-09-22T17:29:12.709Z,100.00
2022-09-22T17:32:37.675Z,100.00
2022-09-22T17:36:01.671Z,100.00
2022-09-22T17:39:24.661Z,100.00
2022-09-22T17:42:48.634Z,100.00
2022-09-22T17:46:12.741Z,100.00
2022-09-22T17:49:55.652Z,100.00
2022-09-22T17:53:30.667Z,100.00
2022-09-22T17:56:53.652Z,100.00
2022-09-22T18:00:21.758Z,100.00
2022-09-22T18:03:45.640Z,100.00
2022-09-22T18:07:13.707Z,100.00
2022-09-22T18:10:41.650Z,100.00
2022-09-22T18:14:05.780Z,100.00
2022-09-22T18:17:32.686Z,100.00
2022-09-22T18:20:57.668Z,100.00
2022-09-22T18:24:27.686Z,100.00
2022-09-22T18:27:51.649Z,100.00
2022-09-22T18:31:15.734Z,100.00
2022-09-22T18:34:39.708Z,100.00
2022-09-22T18:38:02.660Z,100.00
2022-09-22T18:41:26.711Z,100.00
2022-09-22T18:44:50.689Z,100.00
2022-09-22T18:48:14.707Z,100.00
2022-09-22T18:51:38.657Z,100.00
2022-09-22T18:55:04.739Z,100.00
2022-09-22T18:58:28.697Z,100.00
2022-09-22T19:01:52.751Z,100.00
2022-09-22T19:05:16.689Z,100.00
2022-09-22T19:08:41.700Z,100.00
2022-09-22T19:12:06.678Z,100.00
2022-09-22T19:15:33.762Z,100.00
2022-09-22T19:18:57.721Z,100.00
2022-09-22T19:22:17.317Z,100.00
2022-09-22T19:25:35.693Z,100.00
2022-09-22T19:29:00.745Z,100.00
2022-09-22T19:32:24.668Z,100.00
2022-09-22T19:35:47.706Z,100.00
2022-09-22T19:39:12.714Z,100.00
2022-09-22T19:42:40.054Z,100.00
2022-09-22T19:46:04.710Z,100.00
2022-09-22T19:49:29.704Z,100.00
2022-09-22T19:52:53.739Z,100.00
2022-09-22T19:56:17.718Z,100.00
2022-09-22T19:59:41.765Z,100.00
2022-09-22T20:03:08.739Z,100.00
2022-09-22T20:06:33.772Z,100.00
2022-09-22T20:09:57.677Z,100.00
2022-09-22T20:13:39.767Z,100.00
2022-09-22T20:17:12.727Z,100.00
2022-09-22T20:20:41.763Z,100.00
2022-09-22T20:24:05.679Z,100.00
2022-09-22T20:27:29.894Z,100.00
2022-09-22T20:30:53.746Z,100.00
2022-09-22T20:34:18.741Z,100.00
2022-09-22T20:37:43.733Z,100.00
2022-09-22T20:41:06.861Z,100.00
2022-09-22T20:44:30.734Z,100.00
2022-09-22T20:47:54.728Z,100.00
2022-09-22T20:51:11.705Z,100.00
2022-09-22T20:54:34.773Z,100.00
2022-09-22T20:57:51.770Z,100.00
2022-09-22T21:01:16.797Z,100.00
2022-09-22T21:04:40.681Z,100.00
2022-09-22T21:08:24.778Z,100.00
2022-09-22T21:11:48.760Z,100.00
2022-09-22T21:15:12.771Z,100.00
2022-09-22T21:18:35.786Z,100.00
2022-09-22T21:21:53.343Z,100.00
2022-09-22T21:25:10.821Z,100.00
2022-09-22T21:28:34.761Z,100.00
2022-09-22T21:31:58.758Z,100.00
2022-09-22T21:35:24.754Z,100.00
2022-09-22T21:38:48.752Z,100.00
2022-09-22T21:42:13.784Z,100.00
2022-09-22T21:45:37.717Z,100.00
2022-09-22T21:49:02.806Z,100.00
2022-09-22T21:52:27.715Z,100.00
2022-09-22T21:55:51.802Z,100.00
2022-09-22T21:59:17.779Z,100.00
2022-09-22T22:03:01.749Z,100.00
2022-09-22T22:06:26.803Z,100.00
2022-09-22T22:09:50.767Z,100.00
2022-09-22T22:13:14.765Z,100.00
2022-09-22T22:16:40.771Z,100.00
2022-09-22T22:20:05.774Z,100.00
2022-09-22T22:23:29.806Z,100.00
2022-09-22T22:26:47.766Z,100.00
2022-09-22T22:30:11.760Z,100.00
2022-09-22T22:33:36.759Z,100.00
2022-09-22T22:37:00.794Z,100.00
2022-09-22T22:40:25.860Z,100.00
2022-09-22T22:43:49.741Z,100.00
2022-09-22T22:47:13.807Z,100.00
2022-09-22T22:50:36.795Z,100.00
2022-09-22T22:54:03.759Z,100.00
2022-09-22T22:57:27.781Z,100.00
2022-09-22T23:00:51.737Z,100.00
2022-09-22T23:04:17.808Z,100.00
2022-09-22T23:07:41.792Z,100.00
2022-09-22T23:11:04.792Z,100.00
2022-09-22T23:14:28.799Z,100.00
2022-09-22T23:17:52.788Z,100.00
2022-09-22T23:21:17.822Z,100.00
2022-09-22T23:24:41.794Z,100.00
2022-09-22T23:28:09.796Z,100.00
2022-09-22T23:31:34.811Z,94.40
2022-09-22T23:34:58.817Z,100.00
2022-09-22T23:38:22.792Z,100.00
2022-09-22T23:41:50.781Z,100.00
2022-09-22T23:45:15.799Z,100.00
2022-09-22T23:48:39.770Z,100.00
2022-09-22T23:52:03.844Z,100.00
2022-09-22T23:55:26.828Z,98.12
2022-09-22T23:58:53.814Z,92.68
